sensor_id;sensor_type;location;lat;lon;timestamp;P1;durP1;ratioP1;P2;durP2;ratioP2
28003;SDS011;15330;51.234;6.754;2022-07-23T00:01:20;22.05;;;15.73;;
28003;SDS011;15330;51.234;6.754;2022-07-23T00:03:46;24.90;;;16.10;;
28003;SDS011;15330;51.234;6.754;2022-07-23T00:06:11;28.58;;;16.52;;
28003;SDS011;15330;51.234;6.754;2022-07-23T00:08:37;22.73;;;15.27;;
28003;SDS011;15330;51.234;6.754;2022-07-23T00:11:02;24.27;;;15.00;;
28003;SDS011;15330;51.234;6.754;2022-07-23T00:13:27;25.92;;;15.27;;
28003;SDS011;15330;51.234;6.754;2022-07-23T00:15:53;23.23;;;15.35;;
28003;SDS011;15330;51.234;6.754;2022-07-23T00:18:19;19.55;;;13.50;;
28003;SDS011;15330;51.234;6.754;2022-07-23T00:20:44;23.30;;;14.40;;
28003;SDS011;15330;51.234;6.754;2022-07-23T00:23:09;23.55;;;15.27;;
28003;SDS011;15330;51.234;6.754;2022-07-23T00:25:35;24.55;;;15.95;;
28003;SDS011;15330;51.234;6.754;2022-07-23T00:28:01;20.60;;;15.13;;
28003;SDS011;15330;51.234;6.754;2022-07-23T00:30:27;26.05;;;15.20;;
28003;SDS011;15330;51.234;6.754;2022-07-23T00:32:58;29.20;;;16.73;;
28003;SDS011;15330;51.234;6.754;2022-07-23T00:35:28;24.77;;;17.02;;
28003;SDS011;15330;51.234;6.754;2022-07-23T00:37:56;27.13;;;17.02;;
28003;SDS011;15330;51.234;6.754;2022-07-23T00:40:22;26.70;;;17.13;;
28003;SDS011;15330;51.234;6.754;2022-07-23T00:42:48;29.67;;;18.02;;
28003;SDS011;15330;51.234;6.754;2022-07-23T00:45:14;26.17;;;16.88;;
28003;SDS011;15330;51.234;6.754;2022-07-23T00:47:39;25.08;;;18.17;;
28003;SDS011;15330;51.234;6.754;2022-07-23T00:50:05;24.88;;;16.85;;
28003;SDS011;15330;51.234;6.754;2022-07-23T00:52:32;27.42;;;17.27;;
28003;SDS011;15330;51.234;6.754;2022-07-23T00:54:59;24.65;;;17.23;;
28003;SDS011;15330;51.234;6.754;2022-07-23T00:57:25;27.98;;;17.40;;
28003;SDS011;15330;51.234;6.754;2022-07-23T00:59:51;26.75;;;17.17;;
28003;SDS011;15330;51.234;6.754;2022-07-23T01:02:16;28.40;;;17.40;;
28003;SDS011;15330;51.234;6.754;2022-07-23T01:04:41;26.02;;;17.58;;
28003;SDS011;15330;51.234;6.754;2022-07-23T01:07:07;24.80;;;15.93;;
28003;SDS011;15330;51.234;6.754;2022-07-23T01:09:32;26.75;;;16.08;;
28003;SDS011;15330;51.234;6.754;2022-07-23T01:11:58;27.92;;;17.80;;
28003;SDS011;15330;51.234;6.754;2022-07-23T01:14:24;33.70;;;21.08;;
28003;SDS011;15330;51.234;6.754;2022-07-23T01:16:49;28.25;;;19.02;;
28003;SDS011;15330;51.234;6.754;2022-07-23T01:19:15;28.10;;;17.67;;
28003;SDS011;15330;51.234;6.754;2022-07-23T01:21:42;26.40;;;17.88;;
28003;SDS011;15330;51.234;6.754;2022-07-23T01:24:11;27.13;;;19.10;;
28003;SDS011;15330;51.234;6.754;2022-07-23T01:26:37;32.50;;;19.10;;
28003;SDS011;15330;51.234;6.754;2022-07-23T01:29:04;24.70;;;16.80;;
28003;SDS011;15330;51.234;6.754;2022-07-23T01:31:30;28.27;;;18.05;;
28003;SDS011;15330;51.234;6.754;2022-07-23T01:33:56;25.83;;;18.08;;
28003;SDS011;15330;51.234;6.754;2022-07-23T01:36:21;29.13;;;18.55;;
28003;SDS011;15330;51.234;6.754;2022-07-23T01:38:48;29.05;;;17.80;;
28003;SDS011;15330;51.234;6.754;2022-07-23T01:41:13;26.23;;;17.35;;
28003;SDS011;15330;51.234;6.754;2022-07-23T01:43:39;25.90;;;16.95;;
28003;SDS011;15330;51.234;6.754;2022-07-23T01:46:04;28.83;;;17.73;;
28003;SDS011;15330;51.234;6.754;2022-07-23T01:48:30;28.48;;;19.55;;
28003;SDS011;15330;51.234;6.754;2022-07-23T01:50:55;30.30;;;17.38;;
28003;SDS011;15330;51.234;6.754;2022-07-23T01:53:21;26.75;;;17.65;;
28003;SDS011;15330;51.234;6.754;2022-07-23T01:55:46;25.75;;;17.05;;
28003;SDS011;15330;51.234;6.754;2022-07-23T01:58:12;25.02;;;16.67;;
28003;SDS011;15330;51.234;6.754;2022-07-23T02:00:37;27.33;;;17.05;;
28003;SDS011;15330;51.234;6.754;2022-07-23T02:03:02;23.52;;;16.65;;
28003;SDS011;15330;51.234;6.754;2022-07-23T02:05:28;23.73;;;16.52;;
28003;SDS011;15330;51.234;6.754;2022-07-23T02:07:55;24.42;;;16.60;;
28003;SDS011;15330;51.234;6.754;2022-07-23T02:10:21;26.52;;;16.35;;
28003;SDS011;15330;51.234;6.754;2022-07-23T02:12:46;23.98;;;15.88;;
28003;SDS011;15330;51.234;6.754;2022-07-23T02:15:12;26.50;;;16.42;;
28003;SDS011;15330;51.234;6.754;2022-07-23T02:17:37;29.15;;;18.20;;
28003;SDS011;15330;51.234;6.754;2022-07-23T02:20:03;23.70;;;16.45;;
28003;SDS011;15330;51.234;6.754;2022-07-23T02:22:30;27.52;;;17.65;;
28003;SDS011;15330;51.234;6.754;2022-07-23T02:24:56;22.67;;;16.30;;
28003;SDS011;15330;51.234;6.754;2022-07-23T02:27:21;22.88;;;16.25;;
28003;SDS011;15330;51.234;6.754;2022-07-23T02:29:48;22.23;;;16.05;;
28003;SDS011;15330;51.234;6.754;2022-07-23T02:32:13;26.52;;;16.70;;
28003;SDS011;15330;51.234;6.754;2022-07-23T02:34:39;24.98;;;17.35;;
28003;SDS011;15330;51.234;6.754;2022-07-23T02:37:04;22.73;;;16.75;;
28003;SDS011;15330;51.234;6.754;2022-07-23T02:39:30;25.58;;;16.95;;
28003;SDS011;15330;51.234;6.754;2022-07-23T02:41:55;26.73;;;16.50;;
28003;SDS011;15330;51.234;6.754;2022-07-23T02:44:20;24.20;;;15.90;;
28003;SDS011;15330;51.234;6.754;2022-07-23T02:46:46;28.92;;;15.63;;
28003;SDS011;15330;51.234;6.754;2022-07-23T02:49:11;23.63;;;18.45;;
28003;SDS011;15330;51.234;6.754;2022-07-23T02:51:36;29.63;;;20.10;;
28003;SDS011;15330;51.234;6.754;2022-07-23T02:54:02;27.90;;;19.45;;
28003;SDS011;15330;51.234;6.754;2022-07-23T02:56:27;27.20;;;19.50;;
28003;SDS011;15330;51.234;6.754;2022-07-23T02:58:53;54.00;;;39.60;;
28003;SDS011;15330;51.234;6.754;2022-07-23T03:01:18;65.22;;;47.58;;
28003;SDS011;15330;51.234;6.754;2022-07-23T03:03:43;47.17;;;31.83;;
28003;SDS011;15330;51.234;6.754;2022-07-23T03:06:09;26.83;;;19.20;;
28003;SDS011;15330;51.234;6.754;2022-07-23T03:08:34;25.55;;;18.20;;
28003;SDS011;15330;51.234;6.754;2022-07-23T03:11:00;24.70;;;16.70;;
28003;SDS011;15330;51.234;6.754;2022-07-23T03:13:25;26.33;;;17.35;;
28003;SDS011;15330;51.234;6.754;2022-07-23T03:15:50;24.88;;;17.95;;
28003;SDS011;15330;51.234;6.754;2022-07-23T03:18:16;21.48;;;16.08;;
28003;SDS011;15330;51.234;6.754;2022-07-23T03:20:41;25.75;;;16.77;;
28003;SDS011;15330;51.234;6.754;2022-07-23T03:23:07;21.35;;;15.68;;
28003;SDS011;15330;51.234;6.754;2022-07-23T03:25:32;29.25;;;19.40;;
28003;SDS011;15330;51.234;6.754;2022-07-23T03:27:57;31.38;;;21.20;;
28003;SDS011;15330;51.234;6.754;2022-07-23T03:30:23;35.85;;;24.23;;
28003;SDS011;15330;51.234;6.754;2022-07-23T03:32:48;34.72;;;22.45;;
28003;SDS011;15330;51.234;6.754;2022-07-23T03:35:14;28.13;;;20.60;;
28003;SDS011;15330;51.234;6.754;2022-07-23T03:37:39;28.10;;;19.85;;
28003;SDS011;15330;51.234;6.754;2022-07-23T03:40:05;31.65;;;21.55;;
28003;SDS011;15330;51.234;6.754;2022-07-23T03:42:31;33.55;;;22.80;;
28003;SDS011;15330;51.234;6.754;2022-07-23T03:44:57;29.40;;;19.85;;
28003;SDS011;15330;51.234;6.754;2022-07-23T03:47:22;27.98;;;18.73;;
28003;SDS011;15330;51.234;6.754;2022-07-23T03:49:48;26.45;;;18.02;;
28003;SDS011;15330;51.234;6.754;2022-07-23T03:52:13;25.77;;;17.27;;
28003;SDS011;15330;51.234;6.754;2022-07-23T03:54:39;27.02;;;17.00;;
28003;SDS011;15330;51.234;6.754;2022-07-23T03:57:04;28.15;;;18.30;;
28003;SDS011;15330;51.234;6.754;2022-07-23T03:59:30;31.17;;;20.48;;
28003;SDS011;15330;51.234;6.754;2022-07-23T04:01:55;28.40;;;18.08;;
28003;SDS011;15330;51.234;6.754;2022-07-23T04:04:20;27.85;;;18.48;;
28003;SDS011;15330;51.234;6.754;2022-07-23T04:06:46;31.70;;;18.55;;
28003;SDS011;15330;51.234;6.754;2022-07-23T04:09:11;27.65;;;18.20;;
28003;SDS011;15330;51.234;6.754;2022-07-23T04:11:37;27.67;;;17.70;;
28003;SDS011;15330;51.234;6.754;2022-07-23T04:14:02;27.25;;;17.40;;
28003;SDS011;15330;51.234;6.754;2022-07-23T04:16:28;26.55;;;16.67;;
28003;SDS011;15330;51.234;6.754;2022-07-23T04:18:53;29.55;;;18.00;;
28003;SDS011;15330;51.234;6.754;2022-07-23T04:21:19;26.33;;;15.73;;
28003;SDS011;15330;51.234;6.754;2022-07-23T04:23:44;23.35;;;17.25;;
28003;SDS011;15330;51.234;6.754;2022-07-23T04:26:09;21.38;;;15.50;;
28003;SDS011;15330;51.234;6.754;2022-07-23T04:28:35;24.77;;;16.95;;
28003;SDS011;15330;51.234;6.754;2022-07-23T04:31:00;22.52;;;15.35;;
28003;SDS011;15330;51.234;6.754;2022-07-23T04:33:26;21.92;;;16.58;;
28003;SDS011;15330;51.234;6.754;2022-07-23T04:35:51;19.92;;;14.27;;
28003;SDS011;15330;51.234;6.754;2022-07-23T04:38:16;21.58;;;15.07;;
28003;SDS011;15330;51.234;6.754;2022-07-23T04:40:42;25.70;;;15.20;;
28003;SDS011;15330;51.234;6.754;2022-07-23T04:43:07;20.30;;;14.73;;
28003;SDS011;15330;51.234;6.754;2022-07-23T04:45:33;27.77;;;14.38;;
28003;SDS011;15330;51.234;6.754;2022-07-23T04:47:58;22.20;;;13.95;;
28003;SDS011;15330;51.234;6.754;2022-07-23T04:50:23;21.10;;;13.63;;
28003;SDS011;15330;51.234;6.754;2022-07-23T04:52:49;19.40;;;14.70;;
28003;SDS011;15330;51.234;6.754;2022-07-23T04:55:15;20.38;;;14.38;;
28003;SDS011;15330;51.234;6.754;2022-07-23T04:57:40;22.88;;;12.77;;
28003;SDS011;15330;51.234;6.754;2022-07-23T05:00:06;20.25;;;12.77;;
28003;SDS011;15330;51.234;6.754;2022-07-23T05:02:33;19.48;;;13.60;;
28003;SDS011;15330;51.234;6.754;2022-07-23T05:04:58;19.88;;;13.98;;
28003;SDS011;15330;51.234;6.754;2022-07-23T05:07:24;19.55;;;13.88;;
28003;SDS011;15330;51.234;6.754;2022-07-23T05:09:49;20.38;;;13.07;;
28003;SDS011;15330;51.234;6.754;2022-07-23T05:12:15;20.92;;;13.40;;
28003;SDS011;15330;51.234;6.754;2022-07-23T05:14:40;20.75;;;14.80;;
28003;SDS011;15330;51.234;6.754;2022-07-23T05:17:08;19.15;;;13.77;;
28003;SDS011;15330;51.234;6.754;2022-07-23T05:19:34;21.30;;;15.25;;
28003;SDS011;15330;51.234;6.754;2022-07-23T05:22:00;26.20;;;15.35;;
28003;SDS011;15330;51.234;6.754;2022-07-23T05:24:25;20.13;;;13.40;;
28003;SDS011;15330;51.234;6.754;2022-07-23T05:26:51;17.05;;;12.70;;
28003;SDS011;15330;51.234;6.754;2022-07-23T05:29:16;21.73;;;15.65;;
28003;SDS011;15330;51.234;6.754;2022-07-23T05:31:41;27.52;;;17.38;;
28003;SDS011;15330;51.234;6.754;2022-07-23T05:34:07;26.00;;;14.13;;
28003;SDS011;15330;51.234;6.754;2022-07-23T05:36:32;21.30;;;14.38;;
28003;SDS011;15330;51.234;6.754;2022-07-23T05:38:58;26.33;;;16.63;;
28003;SDS011;15330;51.234;6.754;2022-07-23T05:41:24;41.05;;;29.33;;
28003;SDS011;15330;51.234;6.754;2022-07-23T05:43:49;20.17;;;13.68;;
28003;SDS011;15330;51.234;6.754;2022-07-23T05:46:15;26.15;;;20.15;;
28003;SDS011;15330;51.234;6.754;2022-07-23T05:48:40;28.55;;;21.35;;
28003;SDS011;15330;51.234;6.754;2022-07-23T05:51:07;31.25;;;21.35;;
28003;SDS011;15330;51.234;6.754;2022-07-23T05:53:33;20.92;;;14.90;;
28003;SDS011;15330;51.234;6.754;2022-07-23T05:55:59;23.27;;;16.02;;
28003;SDS011;15330;51.234;6.754;2022-07-23T05:58:24;23.15;;;15.18;;
28003;SDS011;15330;51.234;6.754;2022-07-23T06:00:50;22.13;;;14.98;;
28003;SDS011;15330;51.234;6.754;2022-07-23T06:03:15;26.25;;;17.02;;
28003;SDS011;15330;51.234;6.754;2022-07-23T06:05:41;25.17;;;15.65;;
28003;SDS011;15330;51.234;6.754;2022-07-23T06:08:06;23.90;;;16.70;;
28003;SDS011;15330;51.234;6.754;2022-07-23T06:10:32;23.45;;;15.85;;
28003;SDS011;15330;51.234;6.754;2022-07-23T06:12:57;31.33;;;17.55;;
28003;SDS011;15330;51.234;6.754;2022-07-23T06:15:23;23.17;;;16.00;;
28003;SDS011;15330;51.234;6.754;2022-07-23T06:17:48;22.80;;;15.63;;
28003;SDS011;15330;51.234;6.754;2022-07-23T06:20:14;26.52;;;17.20;;
28003;SDS011;15330;51.234;6.754;2022-07-23T06:22:39;23.90;;;16.88;;
28003;SDS011;15330;51.234;6.754;2022-07-23T06:25:05;23.38;;;15.88;;
28003;SDS011;15330;51.234;6.754;2022-07-23T06:27:31;22.92;;;16.17;;
28003;SDS011;15330;51.234;6.754;2022-07-23T06:29:56;24.67;;;15.32;;
28003;SDS011;15330;51.234;6.754;2022-07-23T06:32:22;23.23;;;16.35;;
28003;SDS011;15330;51.234;6.754;2022-07-23T06:34:47;24.40;;;15.82;;
28003;SDS011;15330;51.234;6.754;2022-07-23T06:37:13;26.05;;;17.13;;
28003;SDS011;15330;51.234;6.754;2022-07-23T06:39:38;23.85;;;16.10;;
28003;SDS011;15330;51.234;6.754;2022-07-23T06:42:04;24.77;;;16.00;;
28003;SDS011;15330;51.234;6.754;2022-07-23T06:44:29;24.42;;;17.00;;
28003;SDS011;15330;51.234;6.754;2022-07-23T06:46:55;28.90;;;16.58;;
28003;SDS011;15330;51.234;6.754;2022-07-23T06:49:20;26.15;;;17.58;;
28003;SDS011;15330;51.234;6.754;2022-07-23T06:51:45;21.80;;;16.48;;
28003;SDS011;15330;51.234;6.754;2022-07-23T06:54:11;22.70;;;16.45;;
28003;SDS011;15330;51.234;6.754;2022-07-23T06:56:36;24.65;;;16.23;;
28003;SDS011;15330;51.234;6.754;2022-07-23T06:59:02;22.23;;;16.23;;
28003;SDS011;15330;51.234;6.754;2022-07-23T07:01:27;19.92;;;15.05;;
28003;SDS011;15330;51.234;6.754;2022-07-23T07:03:53;21.38;;;15.70;;
28003;SDS011;15330;51.234;6.754;2022-07-23T07:06:18;22.08;;;13.82;;
28003;SDS011;15330;51.234;6.754;2022-07-23T07:08:44;22.50;;;15.40;;
28003;SDS011;15330;51.234;6.754;2022-07-23T07:11:09;21.35;;;16.02;;
28003;SDS011;15330;51.234;6.754;2022-07-23T07:13:36;25.52;;;16.15;;
28003;SDS011;15330;51.234;6.754;2022-07-23T07:16:02;22.77;;;16.23;;
28003;SDS011;15330;51.234;6.754;2022-07-23T07:18:28;24.08;;;15.50;;
28003;SDS011;15330;51.234;6.754;2022-07-23T07:20:53;25.58;;;16.02;;
28003;SDS011;15330;51.234;6.754;2022-07-23T07:23:19;26.42;;;17.70;;
28003;SDS011;15330;51.234;6.754;2022-07-23T07:25:45;28.88;;;20.15;;
28003;SDS011;15330;51.234;6.754;2022-07-23T07:28:12;25.85;;;17.98;;
28003;SDS011;15330;51.234;6.754;2022-07-23T07:30:37;29.58;;;18.83;;
28003;SDS011;15330;51.234;6.754;2022-07-23T07:33:03;30.13;;;20.25;;
28003;SDS011;15330;51.234;6.754;2022-07-23T07:35:29;29.77;;;19.95;;
28003;SDS011;15330;51.234;6.754;2022-07-23T07:37:54;25.58;;;18.02;;
28003;SDS011;15330;51.234;6.754;2022-07-23T07:40:20;26.63;;;17.45;;
28003;SDS011;15330;51.234;6.754;2022-07-23T07:42:50;25.15;;;18.13;;
28003;SDS011;15330;51.234;6.754;2022-07-23T07:45:17;24.42;;;17.30;;
28003;SDS011;15330;51.234;6.754;2022-07-23T07:47:44;23.42;;;17.75;;
28003;SDS011;15330;51.234;6.754;2022-07-23T07:50:10;26.20;;;16.92;;
28003;SDS011;15330;51.234;6.754;2022-07-23T07:52:35;23.60;;;17.00;;
28003;SDS011;15330;51.234;6.754;2022-07-23T07:55:04;27.60;;;18.48;;
28003;SDS011;15330;51.234;6.754;2022-07-23T07:57:31;29.27;;;20.08;;
28003;SDS011;15330;51.234;6.754;2022-07-23T07:59:56;29.27;;;19.20;;
28003;SDS011;15330;51.234;6.754;2022-07-23T08:02:21;24.60;;;18.98;;
28003;SDS011;15330;51.234;6.754;2022-07-23T08:04:47;30.60;;;20.30;;
28003;SDS011;15330;51.234;6.754;2022-07-23T08:07:13;28.52;;;20.92;;
28003;SDS011;15330;51.234;6.754;2022-07-23T08:09:39;29.85;;;22.33;;
28003;SDS011;15330;51.234;6.754;2022-07-23T08:12:04;30.50;;;21.92;;
28003;SDS011;15330;51.234;6.754;2022-07-23T08:14:30;27.10;;;20.65;;
28003;SDS011;15330;51.234;6.754;2022-07-23T08:16:55;30.13;;;21.95;;
28003;SDS011;15330;51.234;6.754;2022-07-23T08:19:21;31.05;;;22.35;;
28003;SDS011;15330;51.234;6.754;2022-07-23T08:21:46;33.88;;;26.15;;
28003;SDS011;15330;51.234;6.754;2022-07-23T08:24:11;30.33;;;23.77;;
28003;SDS011;15330;51.234;6.754;2022-07-23T08:26:37;29.67;;;24.73;;
28003;SDS011;15330;51.234;6.754;2022-07-23T08:29:02;31.10;;;21.90;;
28003;SDS011;15330;51.234;6.754;2022-07-23T08:31:27;23.77;;;16.75;;
28003;SDS011;15330;51.234;6.754;2022-07-23T08:33:53;23.45;;;15.23;;
28003;SDS011;15330;51.234;6.754;2022-07-23T08:36:20;22.70;;;15.75;;
28003;SDS011;15330;51.234;6.754;2022-07-23T08:38:45;19.90;;;14.70;;
28003;SDS011;15330;51.234;6.754;2022-07-23T08:41:10;18.23;;;14.43;;
28003;SDS011;15330;51.234;6.754;2022-07-23T08:43:36;19.02;;;15.45;;
28003;SDS011;15330;51.234;6.754;2022-07-23T08:46:02;15.93;;;11.93;;
28003;SDS011;15330;51.234;6.754;2022-07-23T08:48:30;14.90;;;10.82;;
28003;SDS011;15330;51.234;6.754;2022-07-23T08:51:00;14.13;;;10.07;;
28003;SDS011;15330;51.234;6.754;2022-07-23T08:53:27;11.88;;;9.20;;
28003;SDS011;15330;51.234;6.754;2022-07-23T08:55:54;15.00;;;9.70;;
28003;SDS011;15330;51.234;6.754;2022-07-23T08:58:21;12.07;;;8.13;;
28003;SDS011;15330;51.234;6.754;2022-07-23T09:00:48;18.13;;;10.40;;
28003;SDS011;15330;51.234;6.754;2022-07-23T09:03:18;14.85;;;9.73;;
28003;SDS011;15330;51.234;6.754;2022-07-23T09:05:51;15.27;;;9.48;;
28003;SDS011;15330;51.234;6.754;2022-07-23T09:18:38;11.80;;;6.90;;
28003;SDS011;15330;51.234;6.754;2022-07-23T09:23:46;16.20;;;9.20;;
28003;SDS011;15330;51.234;6.754;2022-07-23T09:28:56;13.13;;;8.13;;
28003;SDS011;15330;51.234;6.754;2022-07-23T09:31:31;11.57;;;6.63;;
28003;SDS011;15330;51.234;6.754;2022-07-23T09:34:05;8.60;;;6.60;;
28003;SDS011;15330;51.234;6.754;2022-07-23T09:36:32;15.30;;;7.75;;
28003;SDS011;15330;51.234;6.754;2022-07-23T09:38:57;12.38;;;6.68;;
28003;SDS011;15330;51.234;6.754;2022-07-23T09:41:23;9.00;;;6.05;;
28003;SDS011;15330;51.234;6.754;2022-07-23T09:43:54;10.13;;;6.32;;
28003;SDS011;15330;51.234;6.754;2022-07-23T09:48:48;11.65;;;8.05;;
28003;SDS011;15330;51.234;6.754;2022-07-23T09:51:14;7.85;;;5.13;;
28003;SDS011;15330;51.234;6.754;2022-07-23T09:53:43;7.72;;;5.53;;
28003;SDS011;15330;51.234;6.754;2022-07-23T09:56:08;8.57;;;5.95;;
28003;SDS011;15330;51.234;6.754;2022-07-23T09:58:36;7.70;;;4.43;;
28003;SDS011;15330;51.234;6.754;2022-07-23T10:01:10;10.02;;;4.75;;
28003;SDS011;15330;51.234;6.754;2022-07-23T10:03:37;8.65;;;4.78;;
28003;SDS011;15330;51.234;6.754;2022-07-23T10:06:03;9.10;;;4.32;;
28003;SDS011;15330;51.234;6.754;2022-07-23T10:08:29;7.85;;;5.25;;
28003;SDS011;15330;51.234;6.754;2022-07-23T10:10:56;7.25;;;4.25;;
28003;SDS011;15330;51.234;6.754;2022-07-23T10:13:23;9.43;;;4.50;;
28003;SDS011;15330;51.234;6.754;2022-07-23T10:15:58;4.47;;;3.55;;
28003;SDS011;15330;51.234;6.754;2022-07-23T10:18:24;9.27;;;4.18;;
28003;SDS011;15330;51.234;6.754;2022-07-23T10:20:49;8.48;;;5.88;;
28003;SDS011;15330;51.234;6.754;2022-07-23T10:26:03;5.88;;;4.07;;
28003;SDS011;15330;51.234;6.754;2022-07-23T10:28:45;7.28;;;4.47;;
28003;SDS011;15330;51.234;6.754;2022-07-23T10:36:56;6.32;;;5.53;;
28003;SDS011;15330;51.234;6.754;2022-07-23T10:39:35;6.57;;;4.63;;
28003;SDS011;15330;51.234;6.754;2022-07-23T10:44:38;7.65;;;3.80;;
28003;SDS011;15330;51.234;6.754;2022-07-23T10:47:05;6.13;;;4.53;;
28003;SDS011;15330;51.234;6.754;2022-07-23T10:49:49;10.18;;;5.40;;
28003;SDS011;15330;51.234;6.754;2022-07-23T11:00:08;8.00;;;4.68;;
28003;SDS011;15330;51.234;6.754;2022-07-23T11:02:40;8.38;;;5.28;;
28003;SDS011;15330;51.234;6.754;2022-07-23T11:05:08;8.07;;;5.05;;
28003;SDS011;15330;51.234;6.754;2022-07-23T11:07:36;5.53;;;3.83;;
28003;SDS011;15330;51.234;6.754;2022-07-23T11:10:34;7.45;;;4.43;;
28003;SDS011;15330;51.234;6.754;2022-07-23T11:21:48;9.68;;;5.35;;
28003;SDS011;15330;51.234;6.754;2022-07-23T11:32:07;7.50;;;4.60;;
28003;SDS011;15330;51.234;6.754;2022-07-23T11:34:43;7.32;;;5.30;;
28003;SDS011;15330;51.234;6.754;2022-07-23T11:37:12;7.47;;;4.82;;
28003;SDS011;15330;51.234;6.754;2022-07-23T11:39:53;7.32;;;4.63;;
28003;SDS011;15330;51.234;6.754;2022-07-23T11:42:20;10.15;;;4.82;;
28003;SDS011;15330;51.234;6.754;2022-07-23T11:44:46;8.83;;;4.80;;
28003;SDS011;15330;51.234;6.754;2022-07-23T11:47:11;6.22;;;3.80;;
28003;SDS011;15330;51.234;6.754;2022-07-23T11:49:38;4.80;;;3.10;;
28003;SDS011;15330;51.234;6.754;2022-07-23T11:52:07;7.57;;;3.28;;
28003;SDS011;15330;51.234;6.754;2022-07-23T11:54:37;7.28;;;3.95;;
28003;SDS011;15330;51.234;6.754;2022-07-23T11:57:13;7.07;;;4.10;;
28003;SDS011;15330;51.234;6.754;2022-07-23T11:59:38;5.15;;;4.32;;
28003;SDS011;15330;51.234;6.754;2022-07-23T12:02:05;9.43;;;4.82;;
28003;SDS011;15330;51.234;6.754;2022-07-23T12:09:49;8.02;;;4.60;;
28003;SDS011;15330;51.234;6.754;2022-07-23T12:12:15;6.78;;;4.45;;
28003;SDS011;15330;51.234;6.754;2022-07-23T12:14:54;8.65;;;4.68;;
28003;SDS011;15330;51.234;6.754;2022-07-23T12:17:22;7.72;;;4.28;;
28003;SDS011;15330;51.234;6.754;2022-07-23T12:20:00;6.88;;;4.07;;
28003;SDS011;15330;51.234;6.754;2022-07-23T12:22:40;6.20;;;4.40;;
28003;SDS011;15330;51.234;6.754;2022-07-23T12:25:16;10.02;;;4.70;;
28003;SDS011;15330;51.234;6.754;2022-07-23T12:27:44;8.15;;;4.03;;
28003;SDS011;15330;51.234;6.754;2022-07-23T12:32:57;6.05;;;3.85;;
28003;SDS011;15330;51.234;6.754;2022-07-23T12:35:23;5.20;;;3.90;;
28003;SDS011;15330;51.234;6.754;2022-07-23T12:37:58;8.05;;;5.00;;
28003;SDS011;15330;51.234;6.754;2022-07-23T12:40:29;8.18;;;4.25;;
28003;SDS011;15330;51.234;6.754;2022-07-23T12:45:28;5.38;;;3.70;;
28003;SDS011;15330;51.234;6.754;2022-07-23T12:48:06;4.38;;;2.95;;
28003;SDS011;15330;51.234;6.754;2022-07-23T12:53:04;8.77;;;3.58;;
28003;SDS011;15330;51.234;6.754;2022-07-23T12:55:33;5.25;;;3.13;;
28003;SDS011;15330;51.234;6.754;2022-07-23T12:58:07;4.60;;;3.05;;
28003;SDS011;15330;51.234;6.754;2022-07-23T13:03:21;4.47;;;3.40;;
28003;SDS011;15330;51.234;6.754;2022-07-23T13:05:51;6.15;;;3.40;;
28003;SDS011;15330;51.234;6.754;2022-07-23T13:08:16;9.55;;;3.88;;
28003;SDS011;15330;51.234;6.754;2022-07-23T13:10:42;3.40;;;3.05;;
28003;SDS011;15330;51.234;6.754;2022-07-23T13:13:09;5.05;;;3.13;;
28003;SDS011;15330;51.234;6.754;2022-07-23T13:15:35;5.15;;;2.90;;
28003;SDS011;15330;51.234;6.754;2022-07-23T13:18:00;9.60;;;5.38;;
28003;SDS011;15330;51.234;6.754;2022-07-23T13:20:25;5.18;;;3.00;;
28003;SDS011;15330;51.234;6.754;2022-07-23T13:22:51;5.45;;;3.05;;
28003;SDS011;15330;51.234;6.754;2022-07-23T13:25:16;6.03;;;2.92;;
28003;SDS011;15330;51.234;6.754;2022-07-23T13:27:42;5.97;;;4.60;;
28003;SDS011;15330;51.234;6.754;2022-07-23T13:30:08;5.28;;;2.67;;
28003;SDS011;15330;51.234;6.754;2022-07-23T13:32:35;4.10;;;2.85;;
28003;SDS011;15330;51.234;6.754;2022-07-23T13:35:02;5.30;;;2.47;;
28003;SDS011;15330;51.234;6.754;2022-07-23T13:37:28;3.08;;;2.78;;
28003;SDS011;15330;51.234;6.754;2022-07-23T13:39:53;2.75;;;2.53;;
28003;SDS011;15330;51.234;6.754;2022-07-23T13:42:18;5.20;;;2.60;;
28003;SDS011;15330;51.234;6.754;2022-07-23T13:44:44;6.43;;;2.67;;
28003;SDS011;15330;51.234;6.754;2022-07-23T13:47:09;5.82;;;2.85;;
28003;SDS011;15330;51.234;6.754;2022-07-23T13:49:35;6.63;;;2.90;;
28003;SDS011;15330;51.234;6.754;2022-07-23T13:52:00;4.00;;;3.00;;
28003;SDS011;15330;51.234;6.754;2022-07-23T13:54:27;5.07;;;2.80;;
28003;SDS011;15330;51.234;6.754;2022-07-23T13:56:52;2.88;;;2.60;;
28003;SDS011;15330;51.234;6.754;2022-07-23T13:59:18;4.95;;;2.90;;
28003;SDS011;15330;51.234;6.754;2022-07-23T14:01:44;3.80;;;3.42;;
28003;SDS011;15330;51.234;6.754;2022-07-23T14:04:09;4.68;;;4.13;;
28003;SDS011;15330;51.234;6.754;2022-07-23T14:06:34;4.10;;;3.63;;
28003;SDS011;15330;51.234;6.754;2022-07-23T14:09:00;3.97;;;3.17;;
28003;SDS011;15330;51.234;6.754;2022-07-23T14:11:25;3.92;;;3.08;;
28003;SDS011;15330;51.234;6.754;2022-07-23T14:13:51;4.43;;;2.63;;
28003;SDS011;15330;51.234;6.754;2022-07-23T14:16:16;3.70;;;2.70;;
28003;SDS011;15330;51.234;6.754;2022-07-23T14:18:41;4.47;;;2.88;;
28003;SDS011;15330;51.234;6.754;2022-07-23T14:21:07;3.75;;;2.50;;
28003;SDS011;15330;51.234;6.754;2022-07-23T14:23:32;4.13;;;2.42;;
28003;SDS011;15330;51.234;6.754;2022-07-23T14:25:58;5.07;;;3.13;;
28003;SDS011;15330;51.234;6.754;2022-07-23T14:28:23;4.20;;;2.38;;
28003;SDS011;15330;51.234;6.754;2022-07-23T14:30:49;4.80;;;2.60;;
28003;SDS011;15330;51.234;6.754;2022-07-23T14:33:14;4.38;;;2.75;;
28003;SDS011;15330;51.234;6.754;2022-07-23T14:35:40;3.08;;;2.60;;
28003;SDS011;15330;51.234;6.754;2022-07-23T14:38:06;2.88;;;2.63;;
28003;SDS011;15330;51.234;6.754;2022-07-23T14:40:31;4.95;;;2.72;;
28003;SDS011;15330;51.234;6.754;2022-07-23T14:42:56;6.50;;;2.97;;
28003;SDS011;15330;51.234;6.754;2022-07-23T14:45:22;4.20;;;2.60;;
28003;SDS011;15330;51.234;6.754;2022-07-23T14:47:47;3.58;;;2.70;;
28003;SDS011;15330;51.234;6.754;2022-07-23T14:50:13;6.75;;;2.75;;
28003;SDS011;15330;51.234;6.754;2022-07-23T14:52:39;4.63;;;2.40;;
28003;SDS011;15330;51.234;6.754;2022-07-23T14:55:04;4.70;;;3.10;;
28003;SDS011;15330;51.234;6.754;2022-07-23T14:57:30;5.35;;;3.28;;
28003;SDS011;15330;51.234;6.754;2022-07-23T14:59:56;4.75;;;3.08;;
28003;SDS011;15330;51.234;6.754;2022-07-23T15:02:21;4.15;;;2.92;;
28003;SDS011;15330;51.234;6.754;2022-07-23T15:04:47;3.50;;;2.75;;
28003;SDS011;15330;51.234;6.754;2022-07-23T15:07:12;5.95;;;3.10;;
28003;SDS011;15330;51.234;6.754;2022-07-23T15:09:38;4.45;;;2.90;;
28003;SDS011;15330;51.234;6.754;2022-07-23T15:12:03;3.50;;;2.83;;
28003;SDS011;15330;51.234;6.754;2022-07-23T15:14:29;4.40;;;2.88;;
28003;SDS011;15330;51.234;6.754;2022-07-23T15:16:55;3.22;;;2.90;;
28003;SDS011;15330;51.234;6.754;2022-07-23T15:19:20;4.00;;;3.30;;
28003;SDS011;15330;51.234;6.754;2022-07-23T15:21:46;4.25;;;3.17;;
28003;SDS011;15330;51.234;6.754;2022-07-23T15:24:11;6.60;;;3.33;;
28003;SDS011;15330;51.234;6.754;2022-07-23T15:26:37;3.17;;;2.88;;
28003;SDS011;15330;51.234;6.754;2022-07-23T15:29:02;3.97;;;3.58;;
28003;SDS011;15330;51.234;6.754;2022-07-23T15:31:28;4.18;;;3.15;;
28003;SDS011;15330;51.234;6.754;2022-07-23T15:33:54;3.53;;;3.03;;
28003;SDS011;15330;51.234;6.754;2022-07-23T15:36:20;3.58;;;2.90;;